Time;durP1;ratioP1;P1;durP2;ratioP2;P2;SDS_P1;SDS_P2;PMS_P1;PMS_P2;Temp;Humidity;BMP_temperature;BMP_pressure;BME280_temperature;BME280_humidity;BME280_pressure;Samples;Min_cycle;Max_cycle;Signal;HPM_P1;HPM_P2
2023/06/10 15:43:13;;;;;;;8.38;7.28;;;25.30;84.20;;;;;;1974404;28;20404;-84
2023/06/10 15:45:06;;;;;;;7.90;4.90;;;24.30;95.90;;;;;;2000445;27;20537;-73
2023/06/10 15:46:03;;;;;;;6.78;5.00;;;24.30;99.30;;;;;;1995690;28;20126;-71
2023/06/10 15:47:01;;;;;;;9.63;4.80;;;24.20;99.60;;;;;;1997792;28;20043;-71
2023/06/10 15:47:59;;;;;;;14.63;5.18;;;24.20;99.90;;;;;;1998524;28;20601;-72
2023/06/10 15:48:56;;;;;;;7.13;4.80;;;24.10;99.90;;;;;;1995002;28;20082;-75
2023/06/10 15:49:54;;;;;;;11.05;5.00;;;24.10;99.90;;;;;;1992665;28;20089;-73
2023/06/10 15:50:51;;;;;;;11.00;5.60;;;24.00;99.90;;;;;;1988842;28;20029;-71
2023/06/10 15:51:49;;;;;;;8.98;5.38;;;24.00;99.90;;;;;;1992081;28;20081;-72
2023/06/10 15:52:47;;;;;;;9.05;5.60;;;23.90;99.90;;;;;;1988196;28;20029;-72
2023/06/10 15:53:45;;;;;;;8.80;5.50;;;23.90;99.90;;;;;;1999247;28;20020;-72
2023/06/10 15:54:43;;;;;;;10.32;5.22;;;23.90;99.90;;;;;;1999602;28;20020;-72
2023/06/10 15:55:40;;;;;;;7.40;5.57;;;23.90;99.90;;;;;;1985785;28;20035;-73
2023/06/10 15:56:39;;;;;;;6.20;5.60;;;23.90;99.90;;;;;;1987106;28;20036;-73
2023/06/10 15:57:37;;;;;;;8.88;5.60;;;23.90;99.90;;;;;;1984348;28;20422;-72
2023/06/10 15:58:34;;;;;;;7.28;5.10;;;23.80;99.90;;;;;;1988442;28;20025;-72
2023/06/10 15:59:32;;;;;;;7.95;4.85;;;23.80;99.90;;;;;;1981840;28;20470;-72
2023/06/10 16:00:30;;;;;;;7.88;5.60;;;23.80;99.90;;;;;;1979926;28;20431;-71
2023/06/10 16:01:27;;;;;;;7.95;5.10;;;23.80;99.90;;;;;;1983251;28;20406;-72
2023/06/10 16:02:25;;;;;;;7.47;5.30;;;23.80;99.90;;;;;;1993304;28;20040;-72
2023/06/10 16:03:22;;;;;;;7.72;5.20;;;23.80;99.90;;;;;;1986131;28;20032;-73
2023/06/10 16:04:20;;;;;;;5.40;4.70;;;23.80;99.90;;;;;;1986942;28;20041;-72
2023/06/10 16:05:17;;;;;;;6.68;4.97;;;23.80;99.90;;;;;;1984866;28;20021;-73
2023/06/10 16:06:15;;;;;;;9.45;4.90;;;23.80;99.90;;;;;;1984520;28;20016;-72
2023/06/10 16:07:13;;;;;;;5.90;5.03;;;23.80;99.90;;;;;;1983648;28;20032;-72
2023/06/10 16:08:10;;;;;;;6.55;5.10;;;23.80;99.90;;;;;;1990865;28;20024;-73
2023/06/10 16:09:08;;;;;;;7.20;5.40;;;23.80;99.90;;;;;;1992995;28;20024;-74
2023/06/10 16:10:06;;;;;;;17.30;5.82;;;23.80;99.90;;;;;;1979099;28;20140;-73
2023/06/10 16:11:04;;;;;;;8.82;5.32;;;23.70;99.90;;;;;;1977334;28;20064;-75
2023/06/10 16:12:02;;;;;;;7.07;5.13;;;23.70;99.90;;;;;;1976353;28;20549;-72
2023/06/10 16:12:59;;;;;;;5.13;4.63;;;23.80;99.90;;;;;;1974945;28;20146;-73
2023/06/10 16:13:57;;;;;;;7.50;5.63;;;23.70;99.90;;;;;;1984865;28;20557;-73
2023/06/10 16:14:55;;;;;;;10.73;5.18;;;23.70;99.90;;;;;;1976569;28;20029;-72
2023/06/10 16:15:52;;;;;;;7.72;4.90;;;23.70;99.90;;;;;;1991373;28;20056;-75
2023/06/10 16:16:50;;;;;;;8.82;5.90;;;23.70;99.90;;;;;;1998853;28;20063;-72
2023/06/10 16:17:47;;;;;;;8.82;5.85;;;23.80;99.90;;;;;;1989015;28;20179;-72
2023/06/10 16:18:45;;;;;;;7.47;5.50;;;23.70;99.90;;;;;;1985937;28;20050;-74
2023/06/10 16:19:42;;;;;;;5.47;4.75;;;23.70;99.90;;;;;;1982170;28;20044;-73
2023/06/10 16:20:40;;;;;;;5.53;5.03;;;23.70;99.90;;;;;;1984772;28;20032;-72
2023/06/10 16:21:39;;;;;;;7.55;5.35;;;23.70;99.90;;;;;;1987259;28;20502;-77
2023/06/10 16:22:37;;;;;;;6.15;5.22;;;23.70;99.90;;;;;;1983265;28;20028;-71
2023/06/10 16:23:34;;;;;;;8.05;5.90;;;23.90;99.90;;;;;;1989373;28;20033;-72
2023/06/10 16:24:32;;;;;;;5.82;5.13;;;23.70;99.90;;;;;;1977507;28;20048;-75
2023/06/10 16:25:29;;;;;;;7.90;5.05;;;23.70;99.90;;;;;;1985246;28;20047;-72
2023/06/10 16:26:27;;;;;;;7.47;5.28;;;23.70;99.90;;;;;;1978416;28;20672;-73
2023/06/10 16:27:25;;;;;;;7.72;5.45;;;23.70;99.90;;;;;;1987133;28;20047;-71
2023/06/10 16:28:23;;;;;;;7.32;5.10;;;23.20;99.90;;;;;;1986663;28;20754;-73
2023/06/10 16:29:20;;;;;;;9.00;5.45;;;23.70;99.90;;;;;;1979859;28;20025;-73
2023/06/10 16:30:18;;;;;;;6.72;5.10;;;23.70;99.90;;;;;;1984996;28;20505;-71
2023/06/10 16:31:15;;;;;;;7.35;4.97;;;23.70;99.90;;;;;;1980085;28;20041;-71
2023/06/10 16:32:13;;;;;;;6.88;5.65;;;23.70;99.90;;;;;;1984979;28;20053;-72
2023/06/10 16:33:10;;;;;;;6.68;5.50;;;23.70;99.90;;;;;;1987886;28;20083;-73
2023/06/10 16:34:08;;;;;;;8.35;5.32;;;23.70;99.90;;;;;;1984917;28;20044;-72
2023/06/10 16:35:05;;;;;;;10.50;4.80;;;23.70;99.90;;;;;;1985262;28;20027;-73
2023/06/10 16:36:03;;;;;;;8.00;5.70;;;23.70;99.90;;;;;;1985324;28;20071;-71
2023/06/10 16:37:00;;;;;;;8.15;5.47;;;23.70;99.90;;;;;;1979429;28;20020;-72
2023/06/10 16:37:58;;;;;;;5.68;4.15;;;23.70;99.90;;;;;;1976996;28;20414;-72
2023/06/10 16:38:57;;;;;;;8.05;6.07;;;23.70;99.90;;;;;;1987840;28;20032;-73
2023/06/10 16:39:54;;;;;;;9.50;5.00;;;23.70;99.90;;;;;;1984873;28;20104;-74
2023/06/10 16:40:52;;;;;;;6.90;5.75;;;23.70;99.90;;;;;;1984948;28;20039;-71
2023/06/10 16:41:49;;;;;;;6.50;5.35;;;23.70;99.90;;;;;;1984717;28;20025;-72
2023/06/10 16:42:47;;;;;;;8.50;4.88;;;23.70;99.90;;;;;;1984231;28;20174;-71
2023/06/10 16:43:44;;;;;;;6.70;5.47;;;23.70;99.90;;;;;;1970707;28;20029;-73
2023/06/10 16:44:42;;;;;;;7.97;5.50;;;23.70;99.90;;;;;;1970532;28;20025;-71
2023/06/10 16:45:39;;;;;;;7.22;4.75;;;23.70;99.90;;;;;;1980050;28;20040;-71
2023/06/10 16:46:37;;;;;;;8.43;4.82;;;23.70;99.90;;;;;;1986176;28;20024;-71
2023/06/10 16:47:35;;;;;;;9.02;5.00;;;23.70;99.90;;;;;;1976960;28;20035;-72
2023/06/10 16:48:33;;;;;;;6.10;4.97;;;23.70;99.90;;;;;;1978310;28;20029;-73
2023/06/10 16:49:30;;;;;;;6.60;4.88;;;23.80;99.90;;;;;;1984351;28;20021;-75
2023/06/10 16:50:28;;;;;;;9.95;5.25;;;23.70;99.90;;;;;;1987530;28;20485;-77
2023/06/10 16:51:26;;;;;;;6.13;5.32;;;23.70;99.90;;;;;;1986012;28;20104;-72
2023/06/10 16:52:24;;;;;;;5.65;4.85;;;23.70;99.90;;;;;;1985675;28;20081;-73
2023/06/10 16:53:21;;;;;;;7.90;5.70;;;23.70;99.90;;;;;;1986163;28;20029;-72
2023/06/10 16:54:19;;;;;;;6.13;5.53;;;23.70;99.90;;;;;;1982594;28;20494;-71
2023/06/10 16:55:17;;;;;;;5.65;5.07;;;23.70;99.90;;;;;;1987436;28;20055;-73
2023/06/10 16:56:14;;;;;;;5.25;4.75;;;23.80;99.90;;;;;;1979928;28;20049;-72
2023/06/10 16:57:12;;;;;;;5.15;4.65;;;23.80;99.90;;;;;;1981901;28;20036;-73
2023/06/10 16:58:09;;;;;;;6.80;5.43;;;23.70;99.90;;;;;;1980686;28;20016;-72
2023/06/10 16:59:08;;;;;;;5.63;5.13;;;23.70;99.90;;;;;;1973669;28;20028;-72
2023/06/10 17:00:09;;;;;;;8.18;5.32;;;23.70;99.90;;;;;;1979503;28;20025;-72
2023/06/10 17:01:07;;;;;;;5.63;5.03;;;23.80;99.90;;;;;;1972286;28;20041;-75
2023/06/10 17:02:05;;;;;;;7.32;5.18;;;23.80;99.90;;;;;;1970906;28;20032;-73
2023/06/10 17:03:03;;;;;;;8.05;5.50;;;23.80;99.90;;;;;;1986413;28;20447;-72
2023/06/10 17:04:01;;;;;;;6.35;5.55;;;23.80;99.90;;;;;;1981438;28;20029;-71
2023/06/10 17:04:58;;;;;;;5.80;5.20;;;23.80;99.90;;;;;;1981465;28;20098;-73
2023/06/10 17:05:56;;;;;;;7.20;5.70;;;23.70;99.90;;;;;;1980374;28;20138;-73
2023/06/10 17:06:54;;;;;;;5.95;5.18;;;23.80;99.90;;;;;;1966089;28;20026;-73
2023/06/10 17:07:51;;;;;;;6.90;5.05;;;23.80;99.90;;;;;;1972781;28;20018;-76
2023/06/10 17:08:49;;;;;;;6.60;4.90;;;23.80;99.90;;;;;;1978677;28;20021;-73
2023/06/10 17:09:47;;;;;;;6.40;5.05;;;23.70;99.90;;;;;;1982370;28;20113;-71
2023/06/10 17:10:44;;;;;;;8.02;5.28;;;23.80;99.90;;;;;;1978757;28;20025;-71
2023/06/10 17:11:42;;;;;;;5.85;4.70;;;23.80;99.90;;;;;;1980968;28;20075;-73
2023/06/10 17:12:40;;;;;;;7.35;5.68;;;23.80;99.90;;;;;;1974059;28;20127;-72
2023/06/10 17:13:37;;;;;;;5.75;4.60;;;23.80;99.90;;;;;;1971900;28;20026;-72
2023/06/10 17:14:35;;;;;;;6.20;5.30;;;23.80;99.90;;;;;;1980944;28;20033;-73
2023/06/10 17:15:33;;;;;;;6.50;5.80;;;23.80;99.90;;;;;;1980432;28;20021;-72
2023/06/10 17:16:30;;;;;;;9.43;5.22;;;23.80;99.90;;;;;;1980647;28;20033;-72
2023/06/10 17:17:28;;;;;;;8.18;5.75;;;23.80;99.90;;;;;;1979169;28;20052;-72
2023/06/10 17:18:25;;;;;;;8.77;5.63;;;23.80;99.90;;;;;;1972894;28;20081;-72
2023/06/10 17:19:23;;;;;;;9.40;5.80;;;23.80;99.90;;;;;;1984984;28;20033;-72
2023/06/10 17:20:21;;;;;;;6.57;5.15;;;23.80;99.90;;;;;;1995494;28;20491;-73
2023/06/10 17:21:18;;;;;;;11.15;5.72;;;23.80;99.90;;;;;;1982766;28;20028;-73
2023/06/10 17:22:18;;;;;;;6.70;5.40;;;23.70;99.90;;;;;;1988379;28;20598;-73
2023/06/10 17:23:15;;;;;;;6.88;4.93;;;23.70;99.90;;;;;;1988711;28;20131;-76
2023/06/10 17:24:13;;;;;;;6.13;5.53;;;23.80;99.90;;;;;;1979431;28;20120;-72
2023/06/10 17:25:11;;;;;;;6.25;5.53;;;23.80;99.90;;;;;;1980039;28;20130;-72
2023/06/10 17:26:08;;;;;;;6.38;5.50;;;23.80;99.90;;;;;;1979196;28;20115;-73
2023/06/10 17:27:06;;;;;;;10.85;5.75;;;23.80;99.90;;;;;;1978812;28;20036;-72
2023/06/10 17:28:03;;;;;;;5.75;5.15;;;23.80;99.90;;;;;;1982303;28;20049;-74
2023/06/10 17:29:02;;;;;;;6.70;5.60;;;23.80;99.90;;;;;;1979884;28;20096;-73
2023/06/10 17:29:59;;;;;;;6.55;5.55;;;23.80;99.90;;;;;;1981463;28;20044;-73
2023/06/10 17:30:57;;;;;;;6.78;6.03;;;23.80;99.90;;;;;;1976597;28;20033;-73
2023/06/10 17:31:54;;;;;;;6.47;5.28;;;23.80;99.90;;;;;;1982938;28;20048;-73
2023/06/10 17:32:52;;;;;;;11.10;5.40;;;23.80;99.90;;;;;;1979225;28;20533;-73
2023/06/10 17:33:49;;;;;;;6.57;5.07;;;23.70;99.90;;;;;;1980879;28;20017;-75
2023/06/10 17:34:47;;;;;;;8.60;6.00;;;23.80;99.90;;;;;;1980503;28;20021;-73
2023/06/10 17:35:44;;;;;;;6.38;5.57;;;23.80;99.90;;;;;;1979184;28;20060;-77
2023/06/10 17:36:42;;;;;;;5.90;5.30;;;23.80;99.90;;;;;;1979870;28;20079;-72
2023/06/10 17:37:39;;;;;;;8.93;5.63;;;23.80;99.90;;;;;;1980867;28;20025;-73
2023/06/10 17:38:37;;;;;;;7.60;5.43;;;23.80;99.90;;;;;;1977298;28;20053;-74
2023/06/10 17:39:35;;;;;;;8.32;5.55;;;23.80;99.90;;;;;;1971458;28;20021;-72
2023/06/10 17:40:32;;;;;;;10.00;6.35;;;23.80;99.90;;;;;;1978302;28;20530;-75
2023/06/10 17:41:30;;;;;;;6.53;5.32;;;23.80;99.90;;;;;;1979685;28;20055;-72
2023/06/10 17:42:27;;;;;;;7.15;5.72;;;23.80;99.90;;;;;;1977946;28;20108;-74
2023/06/10 17:43:25;;;;;;;5.75;5.18;;;23.80;99.90;;;;;;1979114;28;20036;-77
2023/06/10 17:44:24;;;;;;;7.15;5.22;;;23.80;99.90;;;;;;1985629;28;20045;-73
2023/06/10 17:45:21;;;;;;;8.75;5.88;;;23.80;99.90;;;;;;1994772;28;20023;-72
2023/06/10 17:46:19;;;;;;;7.07;5.38;;;23.70;99.90;;;;;;1973782;28;20916;-73
2023/06/10 17:47:17;;;;;;;6.45;5.72;;;23.80;99.90;;;;;;1969223;28;20033;-72
2023/06/10 17:48:15;;;;;;;5.82;5.25;;;23.70;99.90;;;;;;1974696;28;20037;-71
2023/06/10 17:49:13;;;;;;;6.43;5.80;;;23.80;99.90;;;;;;1978694;28;20044;-72
2023/06/10 17:50:10;;;;;;;7.93;5.88;;;23.80;99.90;;;;;;1972749;28;20022;-72
2023/06/10 17:51:09;;;;;;;6.28;5.65;;;23.80;99.90;;;;;;1973951;28;20067;-72
2023/06/10 17:52:06;;;;;;;5.90;5.32;;;23.80;99.90;;;;;;1985336;28;20481;-73
2023/06/10 17:53:04;;;;;;;6.63;5.80;;;23.80;99.90;;;;;;1987257;28;20088;-72
2023/06/10 17:54:02;;;;;;;5.75;5.22;;;23.80;99.90;;;;;;1967980;28;20018;-73
2023/06/10 17:54:59;;;;;;;5.93;5.32;;;23.80;99.90;;;;;;1978888;28;20396;-72
2023/06/10 17:55:57;;;;;;;6.50;5.55;;;23.80;99.90;;;;;;1970402;28;20033;-75
2023/06/10 17:56:54;;;;;;;7.28;5.97;;;23.80;99.90;;;;;;1972484;28;20030;-73
2023/06/10 17:57:52;;;;;;;6.68;5.53;;;23.80;99.90;;;;;;1982777;28;20407;-72
2023/06/10 17:58:49;;;;;;;6.93;5.68;;;23.80;99.90;;;;;;1979076;28;20077;-73
2023/06/10 17:59:47;;;;;;;7.28;5.78;;;23.80;99.90;;;;;;1970450;28;20101;-73
2023/06/10 18:00:45;;;;;;;6.03;5.43;;;23.80;99.90;;;;;;1970822;28;20589;-72
2023/06/10 18:01:42;;;;;;;6.35;5.65;;;23.80;99.90;;;;;;1980890;28;20168;-73
2023/06/10 18:02:40;;;;;;;6.13;5.53;;;23.80;99.90;;;;;;1979623;28;20035;-72
2023/06/10 18:03:38;;;;;;;13.02;5.88;;;23.80;99.90;;;;;;1979998;28;20088;-72
2023/06/10 18:04:35;;;;;;;6.97;6.30;;;23.80;99.90;;;;;;1974404;28;20028;-76
2023/06/10 18:05:33;;;;;;;12.30;5.78;;;23.80;99.90;;;;;;1980527;28;20075;-72
2023/06/10 18:06:33;;;;;;;7.95;5.70;;;23.80;99.90;;;;;;1980786;28;20204;-72
2023/06/10 18:07:31;;;;;;;6.00;5.50;;;23.80;99.90;;;;;;1979059;28;20052;-73
2023/06/10 18:08:28;;;;;;;6.25;5.70;;;23.80;99.90;;;;;;1979339;28;20284;-74
2023/06/10 18:09:26;;;;;;;6.50;5.72;;;23.90;99.90;;;;;;1980764;28;20033;-74
2023/06/10 18:10:24;;;;;;;8.45;6.00;;;23.80;99.90;;;;;;1984170;28;20321;-76
2023/06/10 18:11:21;;;;;;;9.18;6.05;;;23.80;99.90;;;;;;1991619;23;20033;-69
2023/06/10 18:12:19;;;;;;;8.88;5.88;;;23.90;99.90;;;;;;1964180;28;20112;-66
2023/06/10 18:13:16;;;;;;;8.52;6.13;;;23.80;99.90;;;;;;1964964;28;20435;-66
2023/06/10 18:14:14;;;;;;;6.72;6.10;;;23.80;99.90;;;;;;1970772;28;20037;-66
2023/06/10 18:15:12;;;;;;;6.13;5.60;;;23.80;99.90;;;;;;1965969;28;20400;-66
2023/06/10 18:16:09;;;;;;;6.70;5.70;;;23.80;99.90;;;;;;1965390;28;20026;-66
2023/06/10 18:17:07;;;;;;;6.50;5.90;;;23.90;99.90;;;;;;1964252;28;20033;-66
2023/06/10 18:18:05;;;;;;;6.75;5.70;;;23.80;99.90;;;;;;1966435;28;20022;-66
2023/06/10 18:19:02;;;;;;;7.28;5.80;;;23.80;99.90;;;;;;1974471;28;20100;-66
2023/06/10 18:20:00;;;;;;;7.18;5.68;;;23.80;99.90;;;;;;1974102;28;20029;-66
2023/06/10 18:20:57;;;;;;;6.07;5.40;;;23.60;99.90;;;;;;1965703;28;20657;-65
2023/06/10 18:21:55;;;;;;;6.93;6.22;;;23.80;99.90;;;;;;1966730;28;20022;-66
2023/06/10 18:22:52;;;;;;;6.75;5.95;;;23.80;99.90;;;;;;1963553;28;20021;-66
2023/06/10 18:23:50;;;;;;;7.32;6.05;;;23.80;99.90;;;;;;1958408;28;20082;-65
2023/06/10 18:24:47;;;;;;;6.47;5.88;;;23.80;99.90;;;;;;1958686;28;20382;-65
2023/06/10 18:25:45;;;;;;;6.90;6.20;;;23.80;99.90;;;;;;1967074;28;20699;-66
2023/06/10 18:26:42;;;;;;;7.80;5.85;;;23.80;99.90;;;;;;1965509;28;20018;-65
2023/06/10 18:27:40;;;;;;;7.30;5.93;;;23.80;99.90;;;;;;1961353;28;20571;-66
2023/06/10 18:28:37;;;;;;;8.73;6.50;;;23.80;99.90;;;;;;1961373;28;20056;-66
2023/06/10 18:29:35;;;;;;;8.70;6.15;;;23.80;99.90;;;;;;1957756;28;20033;-65
2023/06/10 18:30:32;;;;;;;7.90;6.13;;;23.80;99.90;;;;;;1959993;28;20037;-67
2023/06/10 18:31:30;;;;;;;7.88;6.20;;;23.80;99.90;;;;;;1958341;28;20044;-65
2023/06/10 18:32:27;;;;;;;7.53;5.80;;;23.80;99.90;;;;;;1955279;28;20033;-66
2023/06/10 18:33:25;;;;;;;8.02;6.53;;;23.80;99.90;;;;;;1965720;28;20116;-66
2023/06/10 18:34:23;;;;;;;6.53;5.90;;;23.90;99.90;;;;;;1961060;28;20034;-65
2023/06/10 18:35:21;;;;;;;7.10;6.50;;;23.80;99.90;;;;;;1962378;28;20072;-65
2023/06/10 18:36:18;;;;;;;8.10;6.90;;;23.80;99.90;;;;;;1965843;28;20030;-65
2023/06/10 18:37:16;;;;;;;7.90;6.45;;;23.80;99.90;;;;;;1965097;28;20026;-66
2023/06/10 18:38:13;;;;;;;7.03;6.13;;;23.80;99.90;;;;;;1962959;28;20423;-65
2023/06/10 18:39:11;;;;;;;6.88;6.28;;;23.80;99.90;;;;;;1963444;28;20030;-66
2023/06/10 18:40:09;;;;;;;9.70;6.45;;;23.80;99.90;;;;;;1966808;28;20021;-65
2023/06/10 18:41:07;;;;;;;7.13;6.40;;;23.80;99.90;;;;;;1959431;28;20702;-66
2023/06/10 18:42:05;;;;;;;8.38;7.25;;;23.80;99.90;;;;;;1962717;28;20021;-66
2023/06/10 18:43:03;;;;;;;7.60;6.57;;;23.80;99.90;;;;;;1961814;28;20018;-66
2023/06/10 18:44:01;;;;;;;6.95;6.10;;;23.80;99.90;;;;;;1967162;28;20095;-65
2023/06/10 18:44:58;;;;;;;7.32;6.47;;;23.80;99.90;;;;;;1962415;28;20824;-65
2023/06/10 18:45:56;;;;;;;6.72;6.03;;;23.80;99.90;;;;;;1961474;28;20026;-65
2023/06/10 18:46:53;;;;;;;7.15;6.55;;;23.80;99.90;;;;;;1961160;28;20488;-65
2023/06/10 18:47:51;;;;;;;7.95;6.70;;;23.80;99.90;;;;;;1966226;28;20026;-65
2023/06/10 18:48:50;;;;;;;7.00;6.30;;;23.80;99.90;;;;;;1960834;28;20034;-66
2023/06/10 18:49:47;;;;;;;8.98;6.97;;;23.80;99.90;;;;;;1958160;28;20026;-65
2023/06/10 18:50:45;;;;;;;7.47;6.78;;;23.90;99.90;;;;;;1957210;28;20027;-65
2023/06/10 18:51:42;;;;;;;7.72;6.68;;;23.80;99.90;;;;;;1956341;28;20018;-65
2023/06/10 18:52:40;;;;;;;8.68;6.45;;;23.90;99.90;;;;;;1965203;28;20112;-66
2023/06/10 18:53:37;;;;;;;7.28;6.35;;;23.80;99.90;;;;;;1964142;28;20051;-65
2023/06/10 18:54:35;;;;;;;8.63;7.00;;;23.90;99.90;;;;;;1954928;28;20105;-65
2023/06/10 18:55:35;;;;;;;7.03;6.07;;;23.90;99.90;;;;;;1960036;28;20038;-66
2023/06/10 18:56:33;;;;;;;7.75;6.72;;;23.70;99.90;;;;;;1962360;28;20750;-65
2023/06/10 18:57:30;;;;;;;8.05;7.25;;;23.80;99.90;;;;;;1962104;28;20037;-65
2023/06/10 18:58:32;;;;;;;7.38;6.68;;;23.80;99.90;;;;;;1950692;28;20034;-66
2023/06/10 18:59:29;;;;;;;9.40;6.82;;;23.80;99.90;;;;;;1951059;28;20035;-65
2023/06/10 19:00:27;;;;;;;9.77;6.90;;;23.80;99.90;;;;;;1958454;28;20037;-66
2023/06/10 19:01:25;;;;;;;10.18;7.20;;;23.80;99.90;;;;;;1958495;28;20039;-65
2023/06/10 19:02:22;;;;;;;7.78;6.68;;;23.80;99.90;;;;;;1956159;28;20023;-66
2023/06/10 19:03:20;;;;;;;7.78;6.55;;;23.80;99.90;;;;;;1964168;28;20041;-66
2023/06/10 19:04:17;;;;;;;9.27;6.95;;;23.80;99.90;;;;;;1963556;28;20026;-66
2023/06/10 19:05:15;;;;;;;7.13;6.43;;;23.80;99.90;;;;;;1956467;28;21597;-65
2023/06/10 19:06:13;;;;;;;7.38;6.65;;;23.80;99.90;;;;;;1958509;28;20019;-65
2023/06/10 19:07:10;;;;;;;8.10;6.70;;;23.80;99.90;;;;;;1959859;28;20026;-66
2023/06/10 19:08:08;;;;;;;9.50;6.78;;;23.80;99.90;;;;;;1958885;28;20022;-65
2023/06/10 19:09:05;;;;;;;6.85;5.70;;;23.80;99.90;;;;;;1962773;28;20030;-65
2023/06/10 19:10:03;;;;;;;7.93;6.82;;;23.80;99.90;;;;;;1963788;28;20018;-65
2023/06/10 19:11:01;;;;;;;7.70;6.90;;;23.80;99.90;;;;;;1966461;28;20034;-65
2023/06/10 19:11:59;;;;;;;8.23;6.78;;;23.90;99.90;;;;;;1958397;28;20034;-65
2023/06/10 19:12:56;;;;;;;10.00;6.78;;;23.80;99.90;;;;;;1955530;28;20030;-66
2023/06/10 19:13:54;;;;;;;8.20;6.65;;;23.80;99.90;;;;;;1959063;28;20080;-65
2023/06/10 19:14:51;;;;;;;6.85;6.07;;;23.90;99.90;;;;;;1963490;28;20451;-65
2023/06/10 19:15:49;;;;;;;8.02;6.38;;;23.80;99.90;;;;;;1963681;28;20116;-65
2023/06/10 19:16:46;;;;;;;12.20;7.95;;;23.90;99.90;;;;;;1960909;28;20476;-65
2023/06/10 19:17:44;;;;;;;10.35;7.38;;;23.90;99.90;;;;;;1962591;28;20071;-65
2023/06/10 19:18:41;;;;;;;9.23;7.72;;;23.90;99.90;;;;;;1957895;28;20697;-65
2023/06/10 19:19:39;;;;;;;10.35;8.05;;;23.80;99.90;;;;;;1963947;28;20096;-66
2023/06/10 19:20:39;;;;;;;10.85;7.97;;;23.90;99.90;;;;;;1964750;28;20554;-65
2023/06/10 19:21:36;;;;;;;8.45;7.65;;;23.90;99.90;;;;;;1964645;28;20225;-65
2023/06/10 19:22:34;;;;;;;8.60;7.60;;;23.90;99.90;;;;;;1957295;28;20480;-65
2023/06/10 19:23:32;;;;;;;9.68;7.63;;;23.90;99.90;;;;;;1956960;28;20093;-65
2023/06/10 19:24:29;;;;;;;9.65;7.28;;;23.90;99.90;;;;;;1956446;28;20466;-65
2023/06/10 19:25:27;;;;;;;8.25;6.78;;;23.90;99.90;;;;;;1963550;28;20447;-65
2023/06/10 19:26:25;;;;;;;7.93;7.13;;;23.80;99.90;;;;;;1959362;28;20039;-65
2023/06/10 19:27:22;;;;;;;11.27;7.68;;;23.90;99.90;;;;;;1958464;28;20033;-65
2023/06/10 19:28:20;;;;;;;8.27;6.97;;;23.80;99.90;;;;;;1962842;28;20079;-65
2023/06/10 19:29:17;;;;;;;8.20;7.38;;;23.80;99.90;;;;;;1959711;28;20046;-65
2023/06/10 19:30:15;;;;;;;8.55;7.18;;;23.90;99.90;;;;;;1957568;28;20129;-66
2023/06/10 19:31:12;;;;;;;12.05;8.27;;;23.90;99.90;;;;;;1956596;28;20023;-65
2023/06/10 19:32:10;;;;;;;7.80;6.82;;;23.90;99.90;;;;;;1965149;28;20018;-65
2023/06/10 19:33:07;;;;;;;11.10;8.27;;;23.80;99.90;;;;;;1962338;28;20022;-65
2023/06/10 19:34:05;;;;;;;10.43;8.00;;;23.80;99.90;;;;;;1962578;28;20958;-66
2023/06/10 19:35:05;;;;;;;10.27;7.60;;;23.90;99.90;;;;;;1958549;28;20027;-65
2023/06/10 19:36:02;;;;;;;9.38;7.10;;;23.90;99.90;;;;;;1960352;28;20037;-65
2023/06/10 19:37:00;;;;;;;10.02;7.20;;;23.90;99.90;;;;;;1962071;28;20026;-65
2023/06/10 19:37:57;;;;;;;9.82;7.50;;;23.80;99.90;;;;;;1961139;28;20042;-66
2023/06/10 19:38:55;;;;;;;8.57;7.47;;;23.90;99.90;;;;;;1961156;28;20030;-65
2023/06/10 19:39:53;;;;;;;7.88;6.40;;;23.90;99.90;;;;;;1958908;28;20038;-66
2023/06/10 19:40:50;;;;;;;9.18;7.30;;;23.80;99.90;;;;;;1958996;28;20048;-69
2023/06/10 19:41:48;;;;;;;14.27;8.95;;;23.90;99.90;;;;;;1965973;28;20037;-69
2023/06/10 19:42:46;;;;;;;14.30;10.48;;;24.10;99.90;;;;;;1962982;28;20131;-65
2023/06/10 19:43:44;;;;;;;18.60;11.55;;;24.40;99.90;;;;;;1958579;28;20513;-65
2023/06/10 19:44:42;;;;;;;19.45;13.50;;;24.50;99.90;;;;;;1960569;28;20029;-66
2023/06/10 19:45:39;;;;;;;14.25;10.57;;;24.50;99.90;;;;;;1959068;28;20026;-66
2023/06/10 19:46:37;;;;;;;21.25;12.82;;;24.50;99.90;;;;;;1960920;28;20018;-65
2023/06/10 19:47:34;;;;;;;14.43;10.80;;;24.50;99.90;;;;;;1961572;28;20023;-66
2023/06/10 19:48:32;;;;;;;17.27;13.45;;;24.40;99.90;;;;;;1962539;28;20366;-65
2023/06/10 19:49:30;;;;;;;15.40;13.20;;;24.40;99.90;;;;;;1966450;28;20117;-65
2023/06/10 19:50:27;;;;;;;21.65;13.02;;;24.40;99.90;;;;;;1962191;28;20026;-65
2023/06/10 19:51:25;;;;;;;16.92;12.95;;;24.30;99.90;;;;;;1960418;28;20062;-66
2023/06/10 19:52:24;;;;;;;19.30;12.95;;;24.30;99.90;;;;;;1961390;28;20026;-66
2023/06/10 19:53:22;;;;;;;19.27;12.43;;;24.30;99.90;;;;;;1963545;28;20117;-65
2023/06/10 19:54:20;;;;;;;19.23;13.18;;;24.30;99.90;;;;;;1965162;28;20365;-65
2023/06/10 19:55:18;;;;;;;19.23;12.10;;;24.20;99.90;;;;;;1960800;28;20022;-66
2023/06/10 19:56:18;;;;;;;16.58;12.55;;;24.20;99.90;;;;;;1961723;28;20452;-65
2023/06/10 19:57:16;;;;;;;21.35;12.73;;;24.20;99.90;;;;;;1956754;28;20092;-65
2023/06/10 19:58:13;;;;;;;15.20;12.65;;;24.20;99.90;;;;;;1956366;28;20026;-65
2023/06/10 19:59:11;;;;;;;17.95;12.90;;;24.10;99.90;;;;;;1960150;28;20370;-65
2023/06/10 20:00:09;;;;;;;16.77;12.75;;;24.20;99.90;;;;;;1961755;28;20034;-66
2023/06/10 20:01:07;;;;;;;12.68;10.98;;;24.10;99.90;;;;;;1953437;28;20026;-65
2023/06/10 20:02:04;;;;;;;15.02;11.80;;;24.10;99.90;;;;;;1960755;28;20582;-65
2023/06/10 20:03:02;;;;;;;16.35;12.00;;;24.10;99.90;;;;;;1958486;28;20022;-65
2023/06/10 20:04:00;;;;;;;14.55;10.68;;;24.10;99.90;;;;;;1956967;28;20029;-65
2023/06/10 20:04:57;;;;;;;16.27;10.65;;;24.10;99.90;;;;;;1964137;28;20082;-65
2023/06/10 20:05:55;;;;;;;13.77;10.82;;;24.10;99.90;;;;;;1958184;28;20038;-66
2023/06/10 20:06:52;;;;;;;14.32;10.57;;;24.10;99.90;;;;;;1961883;28;20187;-65
2023/06/10 20:07:50;;;;;;;13.75;11.13;;;24.10;99.90;;;;;;1961795;28;20018;-65
2023/06/10 20:08:47;;;;;;;11.70;10.40;;;24.00;99.90;;;;;;1961336;28;20050;-65
2023/06/10 20:09:45;;;;;;;17.15;10.55;;;24.10;99.90;;;;;;1962931;28;22019;-65
2023/06/10 20:10:42;;;;;;;12.70;10.55;;;24.10;99.90;;;;;;1963463;28;20057;-65
2023/06/10 20:11:40;;;;;;;12.50;10.35;;;24.00;99.90;;;;;;1965443;28;20608;-65
2023/06/10 20:12:37;;;;;;;14.50;10.07;;;24.00;99.90;;;;;;1959147;28;20069;-65
2023/06/10 20:13:35;;;;;;;14.52;10.60;;;24.00;99.90;;;;;;1958856;28;20112;-65
2023/06/10 20:14:32;;;;;;;16.60;10.35;;;24.10;99.90;;;;;;1963779;28;20025;-65
2023/06/10 20:15:30;;;;;;;16.27;10.85;;;24.10;99.90;;;;;;1957870;28;20018;-65
2023/06/10 20:16:27;;;;;;;13.07;10.55;;;24.00;99.90;;;;;;1961585;28;20394;-66
2023/06/10 20:17:26;;;;;;;15.60;9.57;;;24.00;99.90;;;;;;1958877;28;20027;-65
2023/06/10 20:18:24;;;;;;;14.10;10.32;;;24.00;99.90;;;;;;1964836;28;20030;-65
2023/06/10 20:19:21;;;;;;;19.83;10.25;;;24.00;99.90;;;;;;1966010;28;20025;-65
2023/06/10 20:20:19;;;;;;;15.57;10.68;;;24.10;99.90;;;;;;1958521;28;20919;-65
2023/06/10 20:21:18;;;;;;;11.40;9.50;;;24.00;99.90;;;;;;1959787;28;20034;-65
2023/06/10 20:22:16;;;;;;;12.93;9.75;;;24.00;99.90;;;;;;1961363;28;20022;-66
2023/06/10 20:23:13;;;;;;;13.63;9.25;;;24.00;99.90;;;;;;1960028;28;20026;-65
2023/06/10 20:24:11;;;;;;;12.73;9.43;;;24.00;99.90;;;;;;1957390;28;20472;-65
2023/06/10 20:25:09;;;;;;;16.67;9.98;;;24.00;99.90;;;;;;1959042;28;20041;-65
2023/06/10 20:26:06;;;;;;;13.85;9.57;;;24.00;99.90;;;;;;1959690;28;20022;-65
2023/06/10 20:27:04;;;;;;;11.25;8.77;;;24.00;99.90;;;;;;1967267;28;20076;-65
2023/06/10 20:28:02;;;;;;;15.85;10.65;;;24.00;99.90;;;;;;1964565;28;20033;-65
2023/06/10 20:29:00;;;;;;;12.75;9.48;;;24.00;99.90;;;;;;1962008;28;20490;-65
2023/06/10 20:29:58;;;;;;;15.00;9.98;;;24.00;99.90;;;;;;1963065;28;20022;-65
2023/06/10 20:30:55;;;;;;;14.40;9.88;;;24.00;99.90;;;;;;1956143;28;20040;-65
2023/06/10 20:31:53;;;;;;;12.00;9.57;;;24.00;99.90;;;;;;1962795;28;20100;-66
2023/06/10 20:32:51;;;;;;;13.63;9.43;;;24.00;99.90;;;;;;1959908;28;20046;-65
2023/06/10 20:33:49;;;;;;;13.63;9.60;;;24.00;99.90;;;;;;1964923;28;20025;-65
2023/06/10 20:34:46;;;;;;;11.50;9.07;;;24.00;99.90;;;;;;1962851;28;21207;-65
2023/06/10 20:35:44;;;;;;;14.68;9.18;;;24.00;99.90;;;;;;1968637;28;20034;-65
2023/06/10 20:36:41;;;;;;;13.65;9.32;;;24.10;99.90;;;;;;1964820;28;20488;-65
2023/06/10 20:37:39;;;;;;;11.80;9.82;;;24.00;99.90;;;;;;1964295;28;20034;-65
2023/06/10 20:38:36;;;;;;;12.10;10.35;;;24.00;99.90;;;;;;1961005;28;20423;-65
2023/06/10 20:39:34;;;;;;;9.82;8.80;;;24.00;99.90;;;;;;1962779;28;20037;-65
2023/06/10 20:40:31;;;;;;;12.63;9.27;;;24.00;99.90;;;;;;1959873;28;20404;-65
2023/06/10 20:41:29;;;;;;;12.80;8.95;;;24.00;99.90;;;;;;1957288;28;20044;-65
2023/06/10 20:42:26;;;;;;;15.32;10.18;;;24.00;99.90;;;;;;1963919;28;20037;-65